エカテリンブルク の空港の天気 - METARとTAF

コルツォヴォ空港 ( USSS / SVX ) - ロシア エカテリンブルク
飛行場実況気象(Metar)
観測時間10/20 22:00 YEKT (10/20 17:00 UTC)
風向・風速西南西 7m/s
視程10km以上
天気現象
全天の8割程度の雲 雲底高度 670m
気温5℃
湿度87%
気圧1006hPa
METARUSSS 201700Z 25007MPS 9999 BKN022 05/03 Q1006 R26R/220060 NOSIG RMK QFE734/0979
過去の天気等 Google飛行場航空写真 Wunderground天気予報

過去48時間のMETAR

飛行場予報(TAF)
発表時間: 10/20 21:58 YEKT (10/20 16:58 UTC)
予報対象時間: 20日23時 YEKT ~ 21日23時 YEKT
風向・風速西北西 3m/s 瞬間風速 13m/s
視程10km以上
全天の8割程度の積乱雲 雲底高度 460m
TAF USSS 201658Z 2018/2118 29003G13MPS 9999 BKN015CB